createdAt,value
2018-10-18T00:01:35.821Z,15.38
2018-10-18T00:04:06.660Z,15.34
2018-10-18T00:06:37.447Z,15.34
2018-10-18T00:09:11.496Z,15.41
2018-10-18T00:11:42.231Z,15.35
2018-10-18T00:14:12.788Z,15.22
2018-10-18T00:16:43.574Z,15.09
2018-10-18T00:19:14.507Z,14.99
2018-10-18T00:21:45.276Z,14.92
2018-10-18T00:24:16.233Z,14.94
2018-10-18T00:26:47.146Z,14.82
2018-10-18T00:29:18.263Z,14.82
2018-10-18T00:31:49.512Z,14.68
2018-10-18T00:34:20.346Z,14.60
2018-10-18T00:36:52.932Z,14.55
2018-10-18T00:39:23.694Z,14.46
2018-10-18T00:41:54.780Z,14.40
2018-10-18T00:44:25.715Z,14.33
2018-10-18T00:46:56.501Z,14.27
2018-10-18T00:49:27.419Z,14.25
2018-10-18T00:51:58.130Z,14.24
2018-10-18T00:54:28.834Z,14.21
2018-10-18T00:56:59.585Z,14.16
2018-10-18T00:59:30.482Z,14.11
2018-10-18T01:02:01.234Z,14.07
2018-10-18T01:04:32.215Z,14.03
2018-10-18T01:07:03.138Z,13.99
2018-10-18T01:09:33.868Z,13.96
2018-10-18T01:12:04.627Z,13.92
2018-10-18T01:14:35.365Z,13.90
2018-10-18T01:17:06.540Z,13.91
2018-10-18T01:19:40.400Z,13.88
2018-10-18T01:22:11.462Z,13.84
2018-10-18T01:24:42.171Z,13.78
2018-10-18T01:27:12.938Z,13.78
2018-10-18T01:29:43.866Z,13.73
2018-10-18T01:32:15.034Z,13.69
2018-10-18T01:34:45.891Z,13.67
2018-10-18T01:37:16.582Z,13.64
2018-10-18T01:39:47.544Z,13.57
2018-10-18T01:42:24.922Z,13.48
2018-10-18T01:44:56.007Z,13.42
2018-10-18T01:47:26.924Z,13.39
2018-10-18T01:49:57.852Z,13.37
2018-10-18T01:52:28.643Z,13.36
2018-10-18T01:54:59.348Z,13.36
2018-10-18T01:57:30.117Z,13.35
2018-10-18T02:00:01.780Z,13.32
2018-10-18T02:02:32.601Z,13.31
2018-10-18T02:05:03.482Z,13.28
2018-10-18T02:07:34.132Z,13.24
2018-10-18T02:10:04.813Z,13.24
2018-10-18T02:12:35.506Z,13.21
2018-10-18T02:15:06.629Z,13.21
2018-10-18T02:17:37.078Z,13.17
2018-10-18T02:20:09.240Z,13.17
2018-10-18T02:22:40.421Z,13.16
2018-10-18T02:25:14.204Z,13.16
2018-10-18T02:27:44.830Z,13.14
2018-10-18T02:30:15.819Z,13.13
2018-10-18T02:32:46.613Z,13.10
2018-10-18T02:35:17.353Z,13.10
2018-10-18T02:37:48.013Z,13.12
2018-10-18T02:40:18.687Z,13.13
2018-10-18T02:42:49.325Z,13.10
2018-10-18T02:45:19.914Z,13.07
2018-10-18T02:47:50.665Z,13.01
2018-10-18T02:50:21.319Z,12.92
2018-10-18T02:52:52.101Z,12.84
2018-10-18T02:55:22.849Z,12.78
2018-10-18T02:57:53.742Z,12.74
2018-10-18T03:00:24.495Z,12.73
2018-10-18T03:02:55.532Z,12.74
2018-10-18T03:05:26.343Z,12.72
2018-10-18T03:07:57.256Z,12.70
2018-10-18T03:10:28.159Z,12.71
2018-10-18T03:12:58.992Z,12.73
2018-10-18T03:15:29.941Z,12.73
2018-10-18T03:18:01.103Z,12.71
2018-10-18T03:20:32.665Z,12.65
2018-10-18T03:23:03.388Z,12.61
2018-10-18T03:25:35.037Z,12.55
2018-10-18T03:28:05.824Z,12.53
2018-10-18T03:30:36.576Z,12.52
2018-10-18T03:33:07.495Z,12.49
2018-10-18T03:35:38.283Z,12.49
2018-10-18T03:41:13.102Z,12.47
2018-10-18T03:44:00.217Z,12.46
2018-10-18T03:46:31.259Z,12.44
2018-10-18T03:49:03.475Z,12.44
2018-10-18T03:51:34.705Z,12.41
2018-10-18T03:54:18.042Z,12.41
2018-10-18T03:56:51.394Z,12.41
2018-10-18T03:59:22.330Z,12.38
2018-10-18T04:01:53.150Z,12.30
2018-10-18T04:04:23.857Z,12.23
2018-10-18T04:06:55.609Z,12.14
2018-10-18T04:09:43.656Z,12.07
2018-10-18T04:12:14.294Z,12.00
2018-10-18T04:14:45.156Z,12.00
2018-10-18T04:17:16.917Z,12.00
2018-10-18T04:19:54.480Z,12.00
2018-10-18T04:22:25.305Z,12.01
2018-10-18T04:24:57.024Z,12.07
2018-10-18T04:27:27.930Z,12.11
2018-10-18T04:29:58.734Z,12.13
2018-10-18T04:32:29.449Z,12.18
2018-10-18T04:35:00.326Z,12.25
2018-10-18T04:37:31.188Z,12.30
2018-10-18T04:40:02.036Z,12.42
2018-10-18T04:42:59.740Z,12.45
2018-10-18T04:45:30.527Z,12.45
2018-10-18T04:48:01.405Z,12.48
2018-10-18T04:50:33.152Z,12.49
2018-10-18T04:53:04.322Z,12.46
2018-10-18T04:55:35.239Z,12.48
2018-10-18T04:58:08.244Z,12.51
2018-10-18T05:00:39.227Z,12.51
2018-10-18T05:03:10.317Z,12.54
2018-10-18T05:05:59.310Z,12.54
2018-10-18T05:08:30.723Z,12.54
2018-10-18T05:11:01.668Z,12.53
2018-10-18T05:13:32.305Z,12.47
2018-10-18T05:16:03.479Z,12.47
2018-10-18T05:18:34.463Z,12.46
2018-10-18T05:21:05.339Z,12.44
2018-10-18T05:23:36.234Z,12.42
2018-10-18T05:26:07.363Z,12.42
2018-10-18T05:28:40.121Z,12.39
2018-10-18T05:31:11.206Z,12.35
2018-10-18T05:33:42.116Z,12.37
2018-10-18T05:36:12.948Z,12.33
2018-10-18T05:38:43.936Z,12.37
2018-10-18T05:41:14.980Z,12.39
2018-10-18T05:43:46.361Z,12.42
2018-10-18T05:46:17.292Z,12.44
2018-10-18T05:48:50.024Z,12.46
2018-10-18T05:51:20.797Z,12.51
2018-10-18T05:53:52.609Z,12.59
2018-10-18T05:56:24.093Z,12.62
2018-10-18T05:58:55.330Z,12.77
2018-10-18T06:01:26.235Z,13.48
2018-10-18T06:03:57.146Z,14.25
2018-10-18T06:06:27.941Z,14.98
2018-10-18T06:08:58.776Z,15.59
2018-10-18T06:11:31.898Z,15.99
2018-10-18T06:14:02.901Z,16.64
2018-10-18T06:16:34.058Z,17.28
2018-10-18T06:19:05.012Z,17.81
2018-10-18T06:21:35.941Z,18.23
2018-10-18T06:24:07.743Z,18.83
2018-10-18T06:26:38.727Z,19.37
2018-10-18T06:29:09.662Z,20.00
2018-10-18T06:31:42.484Z,20.55
2018-10-18T06:34:13.614Z,20.66
2018-10-18T06:36:44.858Z,20.83
2018-10-18T06:39:16.773Z,21.14
2018-10-18T06:41:48.058Z,21.51
2018-10-18T06:44:18.959Z,21.80
2018-10-18T06:46:50.431Z,21.96
2018-10-18T06:49:21.199Z,22.23
2018-10-18T06:51:52.506Z,22.60
2018-10-18T06:54:23.276Z,22.60
2018-10-18T06:56:54.086Z,22.55
2018-10-18T06:59:24.822Z,22.81
2018-10-18T07:01:55.744Z,23.05
2018-10-18T07:04:26.865Z,23.69
2018-10-18T07:06:57.572Z,24.00
2018-10-18T07:09:28.600Z,24.23
2018-10-18T07:11:59.588Z,24.60
2018-10-18T07:14:30.736Z,24.93
2018-10-18T07:17:01.507Z,25.32
2018-10-18T07:19:32.245Z,25.64
2018-10-18T07:22:03.369Z,25.58
2018-10-18T07:24:35.049Z,25.24
2018-10-18T07:27:06.948Z,25.43
2018-10-18T07:29:37.994Z,25.59
2018-10-18T07:32:09.310Z,25.87
2018-10-18T07:34:40.126Z,26.08
2018-10-18T07:37:11.145Z,26.39
2018-10-18T07:39:41.987Z,26.14
2018-10-18T07:42:12.880Z,26.19
2018-10-18T07:44:43.913Z,25.34
2018-10-18T07:47:15.287Z,25.57
2018-10-18T07:49:46.647Z,25.58
2018-10-18T07:52:17.640Z,25.66
2018-10-18T07:54:48.630Z,25.93
2018-10-18T07:57:19.608Z,26.28
2018-10-18T07:59:50.665Z,26.23
2018-10-18T08:02:21.657Z,25.94
2018-10-18T08:04:52.416Z,26.17
2018-10-18T08:07:23.482Z,26.50
2018-10-18T08:09:55.346Z,26.29
2018-10-18T08:12:26.505Z,26.77
2018-10-18T08:14:57.336Z,27.92
2018-10-18T08:17:28.490Z,27.78
2018-10-18T08:19:59.475Z,28.33
2018-10-18T08:22:30.652Z,28.42
2018-10-18T08:25:01.829Z,28.88
2018-10-18T08:27:32.700Z,29.56
2018-10-18T08:30:03.834Z,29.62
2018-10-18T08:32:35.091Z,29.85
2018-10-18T08:35:06.619Z,29.95
2018-10-18T08:37:37.900Z,29.71
2018-10-18T08:40:10.337Z,29.23
2018-10-18T08:42:41.921Z,29.50
2018-10-18T08:45:13.193Z,30.01
2018-10-18T08:47:44.814Z,30.68
2018-10-18T08:50:16.026Z,30.86
2018-10-18T08:52:48.023Z,30.58
2018-10-18T08:55:19.895Z,30.57
2018-10-18T08:57:51.264Z,31.45
2018-10-18T09:00:22.201Z,31.32
2018-10-18T09:02:53.673Z,31.61
2018-10-18T09:05:25.200Z,31.57
2018-10-18T09:07:56.407Z,31.69
2018-10-18T09:10:27.736Z,31.66
2018-10-18T09:12:59.003Z,30.53
2018-10-18T09:15:30.180Z,31.41
2018-10-18T09:18:01.269Z,31.72
2018-10-18T09:20:32.123Z,31.71
2018-10-18T09:23:03.492Z,32.32
2018-10-18T09:25:35.826Z,32.92
2018-10-18T09:28:06.918Z,32.92
2018-10-18T09:30:38.165Z,33.29
2018-10-18T09:33:09.312Z,32.80
2018-10-18T09:35:40.452Z,32.89
2018-10-18T09:38:11.494Z,33.05
2018-10-18T09:40:42.514Z,33.67
2018-10-18T09:43:13.402Z,33.73
2018-10-18T09:45:44.302Z,33.54
2018-10-18T09:48:15.647Z,32.96
2018-10-18T09:50:46.612Z,33.34
2018-10-18T09:53:17.710Z,33.90
2018-10-18T09:55:48.988Z,33.91
2018-10-18T09:58:20.249Z,33.91
2018-10-18T10:00:56.258Z,33.61
2018-10-18T10:03:27.189Z,33.89
2018-10-18T10:05:58.022Z,33.71
2018-10-18T10:08:28.913Z,33.87
2018-10-18T10:10:59.895Z,34.12
2018-10-18T10:13:31.153Z,34.18
2018-10-18T10:16:02.289Z,34.64
2018-10-18T10:18:33.627Z,33.89
2018-10-18T10:21:04.450Z,34.00
2018-10-18T10:23:35.344Z,34.32
2018-10-18T10:26:06.294Z,34.43
2018-10-18T10:28:37.767Z,34.30
2018-10-18T10:31:09.341Z,34.81
2018-10-18T10:33:40.295Z,35.12
2018-10-18T10:36:10.998Z,35.04
2018-10-18T10:38:41.854Z,35.14
2018-10-18T10:41:12.870Z,34.77
2018-10-18T10:43:44.295Z,33.86
2018-10-18T10:46:15.512Z,33.80
2018-10-18T10:48:46.413Z,33.35
2018-10-18T10:51:17.577Z,33.90
2018-10-18T10:53:48.694Z,34.40
2018-10-18T10:56:19.952Z,34.76
2018-10-18T10:58:51.273Z,34.41
2018-10-18T11:01:23.967Z,34.46
2018-10-18T11:03:57.471Z,34.42
2018-10-18T11:06:29.338Z,34.83
2018-10-18T11:09:00.575Z,34.43
2018-10-18T11:11:32.013Z,35.37
2018-10-18T11:14:03.113Z,35.68
2018-10-18T11:16:34.184Z,35.96
2018-10-18T11:19:05.764Z,36.24
2018-10-18T11:21:36.870Z,36.03
2018-10-18T11:24:08.356Z,36.64
2018-10-18T11:26:39.731Z,36.46
2018-10-18T11:29:11.162Z,34.79
2018-10-18T11:31:44.110Z,34.51
2018-10-18T11:34:16.488Z,34.80
2018-10-18T11:36:47.498Z,34.85
2018-10-18T11:39:18.402Z,35.27
2018-10-18T11:41:49.321Z,35.24
2018-10-18T11:44:24.398Z,35.10
2018-10-18T11:46:55.236Z,34.70
2018-10-18T11:49:26.376Z,34.50
2018-10-18T11:51:57.402Z,34.08
2018-10-18T11:54:28.456Z,34.89
2018-10-18T11:57:00.426Z,33.65
2018-10-18T11:59:31.329Z,33.22
2018-10-18T12:02:02.478Z,34.04
2018-10-18T12:04:33.287Z,34.50
2018-10-18T12:07:04.178Z,35.06
2018-10-18T12:09:35.026Z,35.65
2018-10-18T12:12:06.007Z,36.28
2018-10-18T12:14:37.086Z,36.43
2018-10-18T12:17:08.237Z,36.03
2018-10-18T12:19:39.183Z,35.68
2018-10-18T12:22:10.039Z,35.61
2018-10-18T12:24:41.025Z,34.57
2018-10-18T12:27:12.152Z,35.13
2018-10-18T12:29:44.072Z,35.71
2018-10-18T12:32:15.150Z,35.70
2018-10-18T12:34:46.327Z,33.91
2018-10-18T12:37:17.580Z,32.64
2018-10-18T12:39:48.928Z,32.94
2018-10-18T12:42:19.989Z,33.69
2018-10-18T12:44:51.272Z,34.42
2018-10-18T12:47:22.371Z,34.35
2018-10-18T12:49:53.601Z,34.71
2018-10-18T12:52:25.182Z,35.14
2018-10-18T12:54:56.350Z,35.13
2018-10-18T12:57:27.439Z,35.21
2018-10-18T12:59:58.918Z,35.44
2018-10-18T13:02:29.953Z,35.56
2018-10-18T13:05:01.136Z,35.27
2018-10-18T13:10:02.646Z,35.48
2018-10-18T13:12:34.411Z,36.09
2018-10-18T13:15:05.603Z,35.36
2018-10-18T13:17:36.696Z,35.21
2018-10-18T13:20:08.970Z,34.24
2018-10-18T13:22:40.812Z,33.84
2018-10-18T13:25:12.659Z,33.41
2018-10-18T13:27:43.672Z,33.97
2018-10-18T13:30:14.764Z,34.41
2018-10-18T13:32:46.077Z,33.49
2018-10-18T13:35:17.683Z,33.28
2018-10-18T13:37:48.568Z,33.53
2018-10-18T13:40:19.949Z,33.54
2018-10-18T13:42:50.905Z,33.69
2018-10-18T13:45:21.991Z,33.62
2018-10-18T13:47:53.827Z,33.24
2018-10-18T13:50:26.482Z,33.02
2018-10-18T13:52:57.837Z,33.02
2018-10-18T13:55:29.968Z,33.32
2018-10-18T13:58:01.000Z,32.92
2018-10-18T14:00:32.755Z,32.95
2018-10-18T14:03:03.834Z,33.15
2018-10-18T14:05:34.800Z,33.23
2018-10-18T14:08:06.177Z,33.07
2018-10-18T14:10:37.199Z,33.26
2018-10-18T14:13:08.113Z,32.99
2018-10-18T14:15:39.895Z,33.24
2018-10-18T14:18:10.740Z,32.95
2018-10-18T14:20:42.582Z,32.92
2018-10-18T14:23:13.714Z,32.95
2018-10-18T14:25:44.572Z,33.04
2018-10-18T14:28:16.004Z,32.68
2018-10-18T14:30:46.899Z,32.62
2018-10-18T14:33:18.250Z,32.56
2018-10-18T14:35:49.750Z,32.73
2018-10-18T14:38:22.201Z,32.69
2018-10-18T14:40:53.359Z,32.69
2018-10-18T14:43:24.968Z,32.51
2018-10-18T14:45:56.850Z,32.07
2018-10-18T14:48:27.824Z,31.94
2018-10-18T14:50:59.255Z,31.76
2018-10-18T14:53:30.183Z,31.65
2018-10-18T14:56:00.870Z,31.49
2018-10-18T14:58:32.801Z,31.26
2018-10-18T15:01:03.786Z,31.12
2018-10-18T15:03:34.614Z,30.99
2018-10-18T15:06:06.103Z,30.90
2018-10-18T15:08:37.034Z,30.61
2018-10-18T15:11:09.161Z,30.28
2018-10-18T15:13:40.254Z,30.15
2018-10-18T15:16:11.171Z,29.68
2018-10-18T15:18:44.188Z,29.37
2018-10-18T15:21:16.464Z,28.63
2018-10-18T15:23:47.725Z,28.68
2018-10-18T15:26:18.922Z,28.30
2018-10-18T15:28:50.384Z,28.36
2018-10-18T15:31:22.026Z,28.45
2018-10-18T15:33:53.281Z,28.36
2018-10-18T15:36:24.071Z,28.20
2018-10-18T15:38:55.206Z,27.83
2018-10-18T15:41:26.028Z,27.56
2018-10-18T15:43:56.900Z,27.48
2018-10-18T15:46:27.795Z,27.26
2018-10-18T15:48:58.442Z,26.90
2018-10-18T15:51:29.394Z,26.74
2018-10-18T15:54:00.762Z,26.58
2018-10-18T15:56:31.729Z,26.36
2018-10-18T15:59:02.460Z,26.08
2018-10-18T16:01:33.220Z,25.66
2018-10-18T16:04:04.207Z,25.46
2018-10-18T16:06:35.027Z,25.26
2018-10-18T16:09:09.578Z,24.95
2018-10-18T16:11:40.778Z,24.65
2018-10-18T16:14:11.832Z,24.43
2018-10-18T16:16:42.662Z,24.21
2018-10-18T16:19:13.391Z,23.95
2018-10-18T16:21:44.570Z,23.71
2018-10-18T16:24:15.621Z,23.48
2018-10-18T16:26:46.343Z,23.33
2018-10-18T16:29:17.515Z,23.18
2018-10-18T16:31:49.176Z,23.02
2018-10-18T16:34:20.260Z,22.88
2018-10-18T16:36:51.368Z,22.76
2018-10-18T16:39:22.452Z,22.68
2018-10-18T16:41:53.357Z,22.60
2018-10-18T16:44:24.535Z,22.44
2018-10-18T16:46:55.654Z,22.33
2018-10-18T16:49:26.775Z,22.19
2018-10-18T16:51:58.982Z,22.12
2018-10-18T16:54:31.026Z,22.08
2018-10-18T16:57:01.939Z,22.01
2018-10-18T16:59:33.311Z,21.92
2018-10-18T17:02:04.656Z,21.82
2018-10-18T17:04:35.390Z,21.63
2018-10-18T17:07:06.633Z,21.43
2018-10-18T17:09:37.916Z,21.20
2018-10-18T17:12:09.400Z,21.01
2018-10-18T17:14:40.512Z,20.82
2018-10-18T17:17:12.043Z,20.69
2018-10-18T17:19:43.887Z,20.63
2018-10-18T17:22:14.978Z,20.57
2018-10-18T17:24:45.871Z,20.64
2018-10-18T17:27:17.514Z,20.54
2018-10-18T17:29:48.424Z,20.48
2018-10-18T17:32:19.644Z,20.45
2018-10-18T17:34:50.576Z,20.39
2018-10-18T17:37:21.810Z,20.35
2018-10-18T17:39:52.954Z,20.40
2018-10-18T17:42:24.097Z,20.36
2018-10-18T17:44:55.275Z,20.31
2018-10-18T17:47:27.884Z,20.24
2018-10-18T17:49:59.412Z,20.19
2018-10-18T17:52:31.787Z,20.17
2018-10-18T17:55:04.069Z,20.16
2018-10-18T17:57:34.996Z,20.11
2018-10-18T18:00:11.097Z,20.06
2018-10-18T18:02:42.354Z,20.06
2018-10-18T18:05:14.522Z,20.05
2018-10-18T18:07:45.805Z,20.08
2018-10-18T18:10:18.773Z,20.00
2018-10-18T18:12:49.817Z,19.88
2018-10-18T18:15:20.849Z,19.74
2018-10-18T18:17:52.007Z,19.63
2018-10-18T18:20:23.261Z,19.55
2018-10-18T18:22:54.664Z,19.49
2018-10-18T18:25:25.940Z,19.44
2018-10-18T18:27:58.335Z,19.40
2018-10-18T18:30:29.598Z,19.34
2018-10-18T18:33:00.936Z,19.28
2018-10-18T18:35:32.795Z,19.23
2018-10-18T18:38:05.842Z,19.17
2018-10-18T18:40:37.578Z,19.15
2018-10-18T18:43:08.912Z,19.10
2018-10-18T18:45:44.843Z,19.06
2018-10-18T18:48:20.923Z,19.00
2018-10-18T18:51:00.087Z,18.97
2018-10-18T18:53:40.534Z,18.94
2018-10-18T18:56:16.732Z,18.85
2018-10-18T18:58:48.712Z,18.75
2018-10-18T19:01:27.414Z,18.66
2018-10-18T19:04:00.904Z,18.55
2018-10-18T19:06:34.964Z,18.46
2018-10-18T19:09:11.949Z,18.40
2018-10-18T19:11:44.178Z,18.33
2018-10-18T19:14:17.936Z,18.28
2018-10-18T19:16:52.205Z,18.24
2018-10-18T19:19:26.018Z,18.23
2018-10-18T19:21:59.910Z,18.21
2018-10-18T19:24:32.364Z,18.20
2018-10-18T19:27:04.386Z,18.21
2018-10-18T19:29:38.170Z,18.20
2018-10-18T19:32:09.752Z,18.12
2018-10-18T19:34:43.164Z,18.05
2018-10-18T19:37:15.292Z,18.02
2018-10-18T19:39:48.900Z,18.08
2018-10-18T19:42:20.354Z,18.00
2018-10-18T19:44:52.167Z,17.96
2018-10-18T19:47:23.840Z,17.88
2018-10-18T19:49:55.680Z,17.79
2018-10-18T19:52:27.156Z,17.71
2018-10-18T19:54:58.187Z,17.63
2018-10-18T19:57:30.771Z,17.57
2018-10-18T20:00:02.417Z,17.48
2018-10-18T20:02:33.818Z,17.38
2018-10-18T20:05:05.661Z,17.33
2018-10-18T20:07:37.271Z,17.25
2018-10-18T20:10:09.742Z,17.19
2018-10-18T20:12:41.341Z,17.16
2018-10-18T20:15:13.732Z,17.13
2018-10-18T20:17:45.907Z,17.12
2018-10-18T20:20:17.962Z,17.11
2018-10-18T20:22:50.870Z,17.12
2018-10-18T20:25:22.201Z,17.13
2018-10-18T20:27:53.587Z,17.12
2018-10-18T20:30:26.117Z,17.12
2018-10-18T20:32:58.505Z,17.14
2018-10-18T20:35:30.726Z,17.13
2018-10-18T20:38:03.507Z,17.11
2018-10-18T20:40:35.010Z,17.07
2018-10-18T20:43:06.301Z,17.02
2018-10-18T20:45:37.756Z,16.98
2018-10-18T20:48:09.404Z,16.93
2018-10-18T20:50:40.868Z,16.89
2018-10-18T20:53:14.175Z,16.88
2018-10-18T20:55:45.783Z,16.88
2018-10-18T20:58:17.656Z,16.87
2018-10-18T21:00:49.157Z,16.91
2018-10-18T21:03:22.042Z,16.89
2018-10-18T21:05:53.272Z,16.89
2018-10-18T21:08:29.837Z,16.86
2018-10-18T21:11:02.845Z,16.84
2018-10-18T21:13:34.012Z,16.84
2018-10-18T21:16:10.410Z,16.84
2018-10-18T21:18:42.140Z,16.83
2018-10-18T21:21:13.523Z,16.82
2018-10-18T21:23:44.820Z,16.80
2018-10-18T21:26:23.332Z,16.74
2018-10-18T21:28:54.762Z,16.73
2018-10-18T21:31:25.710Z,16.69
2018-10-18T21:33:57.690Z,16.65
2018-10-18T21:36:28.824Z,16.65
2018-10-18T21:39:00.071Z,16.62
2018-10-18T21:41:31.092Z,16.57
2018-10-18T21:44:02.153Z,16.52
2018-10-18T21:46:33.130Z,16.46
2018-10-18T21:49:05.090Z,16.44
2018-10-18T21:51:36.038Z,16.37
2018-10-18T21:54:07.996Z,16.30
2018-10-18T21:56:38.853Z,16.21
2018-10-18T21:59:09.902Z,16.12
2018-10-18T22:01:43.740Z,16.05
2018-10-18T22:04:14.811Z,15.94
2018-10-18T22:06:46.084Z,15.84
2018-10-18T22:09:17.209Z,15.79
2018-10-18T22:11:48.078Z,15.73
2018-10-18T22:14:19.273Z,15.67
2018-10-18T22:16:50.886Z,15.66
2018-10-18T22:19:21.680Z,15.61
2018-10-18T22:21:52.380Z,15.53
2018-10-18T22:24:23.251Z,15.48
2018-10-18T22:26:54.135Z,15.47
2018-10-18T22:29:24.987Z,15.42
2018-10-18T22:31:55.868Z,15.38
2018-10-18T22:34:26.609Z,15.33
2018-10-18T22:36:57.500Z,15.33
2018-10-18T22:39:28.434Z,15.34
2018-10-18T22:41:59.201Z,15.30
2018-10-18T22:44:30.085Z,15.27
2018-10-18T22:47:01.252Z,15.23
2018-10-18T22:49:32.103Z,15.19
2018-10-18T22:52:03.495Z,15.11
2018-10-18T22:54:34.209Z,14.97
2018-10-18T22:57:05.171Z,14.78
2018-10-18T22:59:36.008Z,14.54
2018-10-18T23:02:13.368Z,14.40
2018-10-18T23:04:44.606Z,14.33
2018-10-18T23:07:15.541Z,14.34
2018-10-18T23:09:46.496Z,14.34
2018-10-18T23:12:17.557Z,14.41
2018-10-18T23:14:48.621Z,14.40
2018-10-18T23:17:19.746Z,14.41
2018-10-18T23:19:50.714Z,14.43
2018-10-18T23:22:21.574Z,14.44
2018-10-18T23:24:53.434Z,14.47
2018-10-18T23:27:23.348Z,14.49
2018-10-18T23:29:54.575Z,14.52
2018-10-18T23:32:25.378Z,14.57
2018-10-18T23:34:56.207Z,14.58
2018-10-18T23:37:26.993Z,14.54
2018-10-18T23:39:57.724Z,14.53
2018-10-18T23:42:28.515Z,14.52
2018-10-18T23:44:59.158Z,14.47
2018-10-18T23:47:29.761Z,14.45
2018-10-18T23:50:00.247Z,14.42
2018-10-18T23:52:31.083Z,14.39
2018-10-18T23:55:01.905Z,14.31
2018-10-18T23:57:32.620Z,14.19
